Time;durP1;ratioP1;P1;durP2;ratioP2;P2;SDS_P1;SDS_P2;PMS_P1;PMS_P2;Temp;Humidity;BMP_temperature;BMP_pressure;BME280_temperature;BME280_humidity;BME280_pressure;Samples;Min_cycle;Max_cycle;Signal;HPM_P1;HPM_P2
2022/09/04 00:00:42;;;;;;;15.95;10.98;;;;;;;20.41;100.00;100392.50;5051200;28;20090;-71
2022/09/04 00:03:36;;;;;;;12.02;8.27;;;;;;;20.27;100.00;100391.69;5051376;28;20032;-71
2022/09/04 00:06:06;;;;;;;5.80;4.78;;;;;;;20.31;100.00;100370.75;5049593;28;20128;-70
2022/09/04 00:08:41;;;;;;;6.68;5.00;;;;;;;20.36;100.00;100397.09;5051134;28;20112;-69
2022/09/04 00:11:36;;;;;;;6.28;4.82;;;;;;;19.39;100.00;100350.50;5051493;28;20032;-70
2022/09/04 00:14:37;;;;;;;5.78;4.85;;;;;;;20.23;100.00;100401.38;5050662;28;20459;-70
2022/09/04 00:17:13;;;;;;;5.15;4.65;;;;;;;19.85;100.00;100380.41;5041718;28;20059;-69
2022/09/04 00:19:58;;;;;;;5.38;4.88;;;;;;;18.95;100.00;100275.72;5050591;28;20040;-69
2022/09/04 00:22:45;;;;;;;5.45;4.95;;;;;;;19.97;100.00;100409.81;5050523;28;20025;-69
2022/09/04 00:25:21;;;;;;;5.78;5.00;;;;;;;19.60;100.00;100348.41;5050711;28;20028;-69
2022/09/04 00:27:52;;;;;;;5.43;4.93;;;;;;;19.10;100.00;100341.00;5050995;28;20044;-69
2022/09/04 00:30:20;;;;;;;5.85;5.30;;;;;;;19.40;100.00;100400.31;5049398;28;20033;-69
2022/09/04 00:33:08;;;;;;;5.80;5.05;;;;;;;19.66;100.00;100410.81;5050851;28;20399;-69
2022/09/04 00:35:43;;;;;;;5.65;5.15;;;;;;;19.35;100.00;100422.97;5050519;28;20020;-67
2022/09/04 00:38:30;;;;;;;6.10;5.50;;;;;;;19.23;100.00;100336.81;5050542;28;20035;-67
2022/09/04 00:41:07;;;;;;;5.95;5.35;;;;;;;19.51;100.00;100403.13;5050654;28;20515;-68
2022/09/04 00:44:05;;;;;;;7.25;5.47;;;;;;;19.43;100.00;100413.06;5050483;28;20187;-68
2022/09/04 00:46:33;;;;;;;6.93;5.57;;;;;;;19.41;100.00;100414.91;5050148;28;20434;-68
2022/09/04 00:49:01;;;;;;;5.93;5.32;;;;;;;19.32;100.00;100417.94;5050447;28;20484;-69
2022/09/04 00:51:54;;;;;;;6.35;5.75;;;;;;;19.53;100.00;100414.19;5050340;28;20029;-68
2022/09/04 00:54:38;;;;;;;6.53;5.55;;;;;;;19.78;100.00;100419.59;5050723;28;20463;-68
2022/09/04 00:57:12;;;;;;;6.55;5.95;;;;;;;19.54;100.00;100421.84;5050136;28;20116;-68
2022/09/04 01:00:15;;;;;;;6.20;5.60;;;;;;;19.31;100.00;100418.88;5050309;28;20033;-69
2022/09/04 01:03:14;;;;;;;6.70;5.75;;;;;;;19.88;100.00;100426.72;5048875;28;20095;-68
2022/09/04 01:05:45;;;;;;;7.03;5.88;;;;;;;19.52;100.00;100443.47;5050150;28;20083;-68
2022/09/04 01:08:33;;;;;;;7.53;5.82;;;;;;;19.84;100.00;100457.94;5050352;28;20029;-69
2022/09/04 01:11:37;;;;;;;5.97;5.38;;;;;;;19.50;100.00;100458.22;5050475;28;20368;-69
2022/09/04 01:14:09;;;;;;;6.70;5.60;;;;;;;19.48;100.00;100454.88;5050156;28;20208;-69
2022/09/04 01:17:26;;;;;;;6.75;6.15;;;;;;;18.93;100.00;100463.09;5048869;28;20028;-69
2022/09/04 01:19:57;;;;;;;7.28;6.55;;;;;;;19.28;100.00;100455.97;5040507;28;20128;-70
2022/09/04 01:22:41;;;;;;;7.05;6.35;;;;;;;18.48;100.00;100331.63;5049115;28;20033;-69
2022/09/04 01:25:44;;;;;;;8.38;6.18;;;;;;;19.55;100.00;100459.59;5050090;28;20032;-69
2022/09/04 01:28:27;;;;;;;6.93;5.85;;;;;;;19.38;100.00;100457.16;5050155;28;20025;-69
2022/09/04 01:31:19;;;;;;;6.38;5.65;;;;;;;19.46;100.00;100454.97;5049947;28;20037;-69
2022/09/04 01:34:27;;;;;;;8.18;7.38;;;;;;;19.36;100.00;100464.16;5048927;28;20467;-69
2022/09/04 01:37:15;;;;;;;8.70;7.22;;;;;;;19.55;100.00;100469.13;5048537;28;20033;-69
2022/09/04 01:39:45;;;;;;;7.63;6.93;;;;;;;19.32;100.00;100456.63;5048304;28;20040;-68
2022/09/04 01:42:24;;;;;;;7.43;6.57;;;;;;;18.91;100.00;100400.50;5048957;28;20082;-68
2022/09/04 01:44:50;;;;;;;6.60;6.00;;;;;;;18.94;100.00;100399.47;5048260;28;20048;-69
2022/09/04 01:47:29;;;;;;;6.97;6.18;;;;;;;19.20;100.00;100462.47;5049987;28;20028;-72
2022/09/04 01:50:05;;;;;;;7.18;6.47;;;;;;;19.02;100.00;100434.22;5049812;28;20487;-70
2022/09/04 01:52:49;;;;;;;6.47;5.88;;;;;;;19.52;100.00;100464.94;5048390;28;20033;-70
2022/09/04 01:55:29;;;;;;;10.10;9.10;;;;;;;19.12;100.00;100413.91;5048294;28;20091;-69
2022/09/04 01:58:22;;;;;;;9.75;8.85;;;;;;;19.09;100.00;100464.81;5062076;28;20061;-70
2022/09/04 02:00:58;;;;;;;8.85;7.95;;;;;;;19.29;100.00;100461.97;5030009;28;20029;-69
2022/09/04 02:04:01;;;;;;;8.20;7.45;;;;;;;19.58;100.00;100469.75;5030080;28;20034;-69
2022/09/04 02:06:32;;;;;;;7.57;6.88;;;;;;;19.19;100.00;100476.28;5029734;28;20057;-70
2022/09/04 02:09:00;;;;;;;7.07;6.30;;;;;;;18.95;100.00;100468.16;5030490;28;20052;-70
2022/09/04 02:11:28;;;;;;;7.40;6.70;;;;;;;18.68;100.00;100452.44;5033230;28;20029;-70
2022/09/04 02:14:16;;;;;;;7.05;6.32;;;;;;;18.90;100.00;100470.97;5033114;28;20048;-70
2022/09/04 02:17:07;;;;;;;6.78;6.18;;;;;;;18.84;100.00;100453.28;5033390;28;20116;-69
2022/09/04 02:19:36;;;;;;;7.40;6.70;;;;;;;18.81;100.00;100453.44;5032304;28;20423;-69
2022/09/04 02:22:01;;;;;;;7.88;7.13;;;;;;;18.82;100.00;100462.00;5033040;28;20057;-69
2022/09/04 02:24:38;;;;;;;7.45;6.20;;;;;;;18.29;100.00;100345.53;5033115;28;20483;-69
2022/09/04 02:27:12;;;;;;;7.97;6.32;;;;;;;18.98;100.00;100463.66;5032944;28;20040;-70
2022/09/04 02:29:50;;;;;;;8.25;6.40;;;;;;;18.80;100.00;100431.16;5032874;28;20487;-70
2022/09/04 02:32:37;;;;;;;8.95;6.72;;;;;;;18.92;100.00;100469.16;5033097;28;20423;-69
2022/09/04 02:35:26;;;;;;;7.22;6.50;;;;;;;18.95;100.00;100470.75;5034432;28;20067;-69
2022/09/04 02:37:57;;;;;;;7.63;6.88;;;;;;;18.72;100.00;100461.66;5032161;28;20474;-69
2022/09/04 02:40:23;;;;;;;7.10;6.40;;;;;;;19.05;100.00;100457.25;5032543;28;20032;-70
2022/09/04 02:43:15;;;;;;;7.25;6.50;;;;;;;18.16;100.00;100350.53;5032442;28;20412;-69
2022/09/04 02:45:52;;;;;;;8.73;6.80;;;;;;;18.17;100.00;100350.44;5031535;28;20128;-69
2022/09/04 02:48:45;;;;;;;7.97;6.43;;;;;;;18.79;100.00;100454.44;5032749;28;20060;-70
2022/09/04 02:51:33;;;;;;;7.85;7.00;;;;;;;18.34;100.00;100423.38;5031228;28;20041;-69
2022/09/04 02:54:05;;;;;;;7.75;6.93;;;;;;;18.64;100.00;100461.22;5032673;28;20526;-69
2022/09/04 02:57:08;;;;;;;7.80;7.05;;;;;;;18.56;100.00;100440.22;5032365;28;20487;-69
2022/09/04 02:59:49;;;;;;;8.93;6.93;;;;;;;18.26;100.00;100412.66;5032577;28;20483;-69
2022/09/04 03:02:44;;;;;;;8.77;7.70;;;;;;;17.95;100.00;100436.56;5032092;28;20036;-69
2022/09/04 03:05:24;;;;;;;8.85;7.43;;;;;;;18.38;100.00;100448.88;5022481;28;20523;-69
2022/09/04 03:08:36;;;;;;;10.25;7.07;;;;;;;17.84;100.00;100372.81;5032413;28;20262;-68
2022/09/04 03:11:08;;;;;;;7.85;7.03;;;;;;;18.39;100.00;100377.59;5026952;28;20432;-70
2022/09/04 03:13:55;;;;;;;9.02;7.57;;;;;;;18.32;100.00;100407.19;5032341;28;20033;-70
2022/09/04 03:16:28;;;;;;;8.50;7.65;;;;;;;18.63;100.00;100451.03;5032459;28;20042;-69
2022/09/04 03:19:29;;;;;;;8.20;7.40;;;;;;;18.25;100.00;100388.66;5031120;28;20415;-70
2022/09/04 03:22:11;;;;;;;8.95;8.05;;;;;;;18.23;100.00;100395.63;5050917;28;20037;-68
2022/09/04 03:25:04;;;;;;;9.02;8.00;;;;;;;18.58;100.00;100451.25;5052070;28;20033;-68
2022/09/04 03:27:32;;;;;;;9.00;8.10;;;;;;;18.73;100.00;100445.31;5052078;28;20114;-68
2022/09/04 03:30:09;;;;;;;9.10;7.72;;;;;;;18.20;100.00;100448.09;5051942;28;20158;-69
2022/09/04 03:32:57;;;;;;;9.73;8.27;;;;;;;18.47;100.00;100457.91;5051648;28;20491;-69
2022/09/04 03:35:55;;;;;;;9.20;7.47;;;;;;;18.48;100.00;100467.28;5051872;28;20033;-70
2022/09/04 03:38:41;;;;;;;9.90;7.97;;;;;;;18.41;100.00;100465.91;5050236;28;20053;-70
2022/09/04 03:41:31;;;;;;;7.97;6.85;;;;;;;18.32;100.00;100482.69;5049944;28;20128;-69
2022/09/04 03:44:15;;;;;;;10.07;7.38;;;;;;;18.44;100.00;100476.91;5051574;28;20072;-69
2022/09/04 03:47:04;;;;;;;7.82;7.03;;;;;;;18.61;100.00;100507.78;5051392;28;20067;-69
2022/09/04 03:49:39;;;;;;;7.00;6.30;;;;;;;18.58;100.00;100509.69;5051596;28;20124;-69
2022/09/04 03:52:31;;;;;;;7.88;6.32;;;;;;;18.57;100.00;100515.75;5051599;28;20037;-69
2022/09/04 03:55:09;;;;;;;6.28;5.68;;;;;;;18.53;100.00;100515.06;5051332;28;20039;-69
2022/09/04 03:57:52;;;;;;;6.18;5.57;;;;;;;19.08;100.00;100514.69;5051452;28;20158;-69
2022/09/04 04:00:20;;;;;;;7.88;5.68;;;;;;;18.38;100.00;100474.63;5050031;28;20127;-69
2022/09/04 04:03:07;;;;;;;6.88;5.72;;;;;;;18.79;100.00;100521.44;5051071;28;20033;-70
2022/09/04 04:05:43;;;;;;;6.95;6.25;;;;;;;18.17;100.00;100447.41;5051148;28;20495;-69
2022/09/04 04:08:27;;;;;;;7.60;6.80;;;;;;;18.76;100.00;100534.47;5051112;28;20067;-68
2022/09/04 04:11:19;;;;;;;6.63;5.90;;;;;;;18.65;100.00;100503.28;5051477;28;20032;-69
2022/09/04 04:13:48;;;;;;;8.40;7.60;;;;;;;18.66;100.00;100525.59;5041325;28;20083;-70
2022/09/04 04:16:39;;;;;;;8.82;7.90;;;;;;;18.49;100.00;100513.56;5038104;28;20029;-70
2022/09/04 04:19:32;;;;;;;9.52;8.48;;;;;;;19.10;100.00;100474.22;5049259;28;20029;-71
2022/09/04 04:22:37;;;;;;;9.20;8.05;;;;;;;18.88;100.00;100459.09;5051148;28;20059;-74
2022/09/04 04:25:47;;;;;;;10.73;8.35;;;;;;;18.48;100.00;100518.81;5050976;28;20037;-70
2022/09/04 04:28:36;;;;;;;10.60;8.48;;;;;;;18.46;100.00;100518.06;5051096;28;20112;-69
2022/09/04 04:31:18;;;;;;;12.02;8.95;;;;;;;18.92;100.00;100502.66;5037814;28;20040;-69
2022/09/04 04:34:08;;;;;;;10.77;8.50;;;;;;;18.40;100.00;100453.97;5049059;28;20392;-68
2022/09/04 04:36:41;;;;;;;10.38;8.52;;;;;;;19.81;100.00;100526.03;5050495;28;20075;-69
2022/09/04 04:39:16;;;;;;;10.10;8.85;;;;;;;18.80;100.00;100529.06;4698462;28;10000612;-72
2022/09/04 04:42:05;;;;;;;10.70;9.43;;;;;;;18.44;100.00;100514.72;5045276;28;20057;-71
2022/09/04 04:47:59;;;;;;;9.45;8.45;;;;;;;18.70;100.00;100516.75;5036304;28;20045;-70
2022/09/04 04:50:58;;;;;;;9.77;8.40;;;;;;;18.82;100.00;100524.66;5047580;28;20043;-69
2022/09/04 04:53:41;;;;;;;11.15;8.70;;;;;;;18.94;100.00;100490.53;5048398;28;20124;-68
2022/09/04 04:56:48;;;;;;;9.90;8.90;;;;;;;18.90;100.00;100550.88;5047402;28;20037;-71
2022/09/04 04:59:26;;;;;;;9.85;8.82;;;;;;;18.75;100.00;100540.53;5029166;28;20049;-69
2022/09/04 05:02:21;;;;;;;10.50;9.10;;;;;;;18.94;100.00;100541.22;5038083;28;20107;-69
2022/09/04 05:05:03;;;;;;;10.35;8.27;;;;;;;19.07;100.00;100482.13;5046269;28;20037;-71
2022/09/04 05:07:59;;;;;;;14.27;10.05;;;;;;;19.55;100.00;100562.00;5046643;28;20130;-69
2022/09/04 05:11:00;;;;;;;14.25;10.43;;;;;;;19.51;100.00;100496.00;5047028;28;20124;-70
2022/09/04 05:14:11;;;;;;;13.05;10.93;;;;;;;18.22;100.00;100440.31;5043736;28;20630;-70
2022/09/04 05:16:56;;;;;;;12.98;11.57;;;;;;;19.20;100.00;100565.59;5048603;28;20040;-68
2022/09/04 05:19:46;;;;;;;12.73;10.43;;;;;;;19.43;100.00;100558.31;5045660;28;20040;-69
2022/09/04 05:22:33;;;;;;;11.20;10.00;;;;;;;19.43;100.00;100566.03;5047204;28;20063;-69
2022/09/04 05:25:56;;;;;;;13.90;9.82;;;;;;;19.11;100.00;100569.53;5048302;28;20120;-68
2022/09/04 05:28:41;;;;;;;10.40;9.30;;;;;;;19.65;100.00;100550.22;5019603;28;20042;-71
2022/09/04 05:31:30;;;;;;;11.48;9.40;;;;;;;19.26;100.00;100568.69;5042128;28;20112;-69
2022/09/04 05:34:00;;;;;;;7.93;7.00;;;;;;;19.12;100.00;100596.97;5048981;28;20065;-69
2022/09/04 05:36:42;;;;;;;7.82;6.95;;;;;;;19.60;100.00;100586.59;5046925;28;20028;-70
2022/09/04 05:39:14;;;;;;;7.28;5.47;;;;;;;19.66;100.00;100606.91;5047360;28;20033;-70
2022/09/04 05:41:48;;;;;;;5.43;4.93;;;;;;;19.48;100.00;100623.41;5046425;28;20644;-70
2022/09/04 05:44:39;;;;;;;5.65;4.55;;;;;;;19.83;100.00;100624.03;5050048;28;20103;-70
2022/09/04 05:47:29;;;;;;;4.32;3.90;;;;;;;19.60;100.00;100621.88;5050401;28;20052;-71
2022/09/04 05:50:15;;;;;;;4.68;4.28;;;;;;;19.83;100.00;100627.44;5029098;28;20080;-68
2022/09/04 05:53:03;;;;;;;5.18;4.60;;;;;;;20.05;100.00;100628.81;5029911;28;20100;-70
2022/09/04 05:55:47;;;;;;;4.35;3.85;;;;;;;20.28;100.00;100621.44;5031733;28;20025;-69
2022/09/04 05:58:18;;;;;;;4.72;3.90;;;;;;;19.79;100.00;100625.13;5031629;28;20037;-71
2022/09/04 06:01:31;;;;;;;5.03;4.00;;;;;;;19.93;100.00;100630.34;5032198;28;20499;-70
2022/09/04 06:04:32;;;;;;;9.20;4.00;;;;;;;20.70;100.00;100633.63;5012258;28;20099;-67
2022/09/04 06:07:20;;;;;;;4.60;3.60;;;;;;;19.81;100.00;100639.59;5031394;28;20099;-69
2022/09/04 06:09:45;;;;;;;3.90;3.60;;;;;;;19.70;100.00;100651.44;5032592;28;20476;-68
2022/09/04 06:12:39;;;;;;;4.93;3.70;;;;;;;20.23;100.00;100651.06;5032892;28;20087;-69
2022/09/04 06:15:16;;;;;;;4.93;4.30;;;;;;;19.63;100.00;100608.84;5033148;28;20818;-69
2022/09/04 06:17:53;;;;;;;5.72;4.00;;;;;;;20.12;100.00;100578.50;5032857;28;20033;-67
2022/09/04 06:20:33;;;;;;;4.75;4.30;;;;;;;19.98;100.00;100656.75;5048281;28;20036;-68
2022/09/04 06:23:17;;;;;;;5.05;4.63;;;;;;;19.93;100.00;100658.75;5031688;28;20120;-70
2022/09/04 06:26:05;;;;;;;5.65;4.43;;;;;;;20.59;100.00;100667.03;5031939;28;20040;-66
2022/09/04 06:28:47;;;;;;;5.18;4.10;;;;;;;20.48;100.00;100661.66;5047893;28;20424;-69
2022/09/04 06:31:19;;;;;;;6.43;4.72;;;;;;;20.23;100.00;100658.81;5032793;28;20348;-71
2022/09/04 06:34:22;;;;;;;5.00;4.50;;;;;;;20.57;100.00;100659.38;5031960;28;20033;-69
2022/09/04 06:37:03;;;;;;;5.20;4.70;;;;;;;19.66;100.00;100552.72;5032254;28;20377;-69
2022/09/04 06:39:53;;;;;;;4.93;4.43;;;;;;;20.69;100.00;100653.50;5030691;28;20103;-70
2022/09/04 06:42:41;;;;;;;6.07;4.68;;;;;;;19.83;100.00;100552.59;5032382;28;20036;-69
2022/09/04 06:45:41;;;;;;;4.63;4.18;;;;;;;19.49;100.00;100655.19;5031834;28;20099;-71
2022/09/04 06:48:16;;;;;;;4.60;4.20;;;;;;;20.56;100.00;100644.78;5031822;28;20060;-71
2022/09/04 06:51:09;;;;;;;4.40;4.00;;;;;;;20.81;100.00;100648.50;5047346;28;20033;-70
2022/09/04 06:54:01;;;;;;;4.78;4.32;;;;;;;20.11;100.00;100509.69;5046978;28;20037;-71
2022/09/04 06:56:39;;;;;;;4.65;4.25;;;;;;;20.43;100.00;100643.84;5032295;28;20483;-69
2022/09/04 06:59:22;;;;;;;4.82;4.32;;;;;;;20.22;100.00;100606.34;5047355;28;20451;-69
2022/09/04 07:01:59;;;;;;;5.10;4.60;;;;;;;20.73;100.00;100678.25;5047658;28;20066;-69
2022/09/04 07:04:42;;;;;;;5.40;4.90;;;;;;;20.39;100.00;100664.75;5032393;28;20033;-68
2022/09/04 07:07:45;;;;;;;5.10;4.60;;;;;;;20.79;100.00;100673.63;5047318;28;20049;-70
2022/09/04 07:10:20;;;;;;;5.20;4.70;;;;;;;21.24;100.00;100656.22;5024877;28;20103;-70
2022/09/04 07:13:23;;;;;;;5.20;4.65;;;;;;;20.66;100.00;100665.75;5046858;28;20029;-70
2022/09/04 07:16:29;;;;;;;5.68;4.55;;;;;;;20.95;100.00;100666.63;5031771;28;20037;-70
2022/09/04 07:19:23;;;;;;;5.28;4.55;;;;;;;20.89;100.00;100657.47;4989894;28;20046;-68
2022/09/04 07:22:09;;;;;;;4.75;4.07;;;;;;;21.45;100.00;100660.06;4989931;28;20040;-69
2022/09/04 07:24:55;;;;;;;5.28;4.28;;;;;;;20.69;100.00;100575.94;5023138;28;20128;-69
2022/09/04 07:27:43;;;;;;;4.45;4.05;;;;;;;21.89;100.00;100680.63;5031582;28;20032;-70
2022/09/04 07:30:17;;;;;;;4.22;3.83;;;;;;;20.55;100.00;100583.69;5030716;28;20091;-70
2022/09/04 07:33:18;;;;;;;4.88;4.28;;;;;;;20.94;100.00;100665.78;5031445;28;20071;-71
2022/09/04 07:35:58;;;;;;;4.40;4.00;;;;;;;20.89;100.00;100604.94;5046220;28;20033;-70
2022/09/04 07:38:42;;;;;;;6.25;4.20;;;;;;;21.59;100.00;100652.28;5028578;28;20140;-70
2022/09/04 07:41:34;;;;;;;4.85;3.97;;;;;;;21.40;100.00;100643.16;5032200;28;20070;-71
2022/09/04 07:44:11;;;;;;;4.75;4.32;;;;;;;21.35;100.00;100656.38;5045261;28;20040;-70
2022/09/04 07:47:00;;;;;;;4.40;4.00;;;;;;;21.11;100.00;100650.13;5051263;28;20033;-70
2022/09/04 07:49:36;;;;;;;5.28;4.18;;;;;;;21.18;100.00;100572.97;5049541;28;20033;-70
2022/09/04 07:52:26;;;;;;;5.45;4.40;;;;;;;21.59;100.00;100651.44;5050959;28;20032;-70
2022/09/04 07:55:03;;;;;;;5.20;4.70;;;;;;;21.80;100.00;100639.75;5035122;28;20044;-70
2022/09/04 07:57:49;;;;;;;4.38;3.70;;;;;;;21.75;100.00;100639.19;5040055;28;20167;-70
2022/09/04 08:00:17;;;;;;;4.20;3.83;;;;;;;21.10;100.00;100557.94;5051204;28;20032;-71
2022/09/04 08:03:10;;;;;;;4.38;3.97;;;;;;;21.77;100.00;100639.13;5051243;28;20029;-73
2022/09/04 08:05:48;;;;;;;4.00;3.60;;;;;;;21.72;100.00;100629.03;5049922;28;20036;-71
2022/09/04 08:08:25;;;;;;;4.05;3.53;;;;;;;21.49;100.00;100651.19;5051288;28;20036;-71
2022/09/04 08:10:55;;;;;;;4.20;3.80;;;;;;;21.25;100.00;100638.94;5050352;28;20033;-71
2022/09/04 08:14:09;;;;;;;4.28;3.88;;;;;;;21.74;100.00;100645.31;5051028;28;20033;-71
2022/09/04 08:17:09;;;;;;;4.00;3.70;;;;;;;20.89;100.00;100582.50;5049414;28;20248;-70
2022/09/04 08:20:15;;;;;;;4.78;4.03;;;;;;;21.44;100.00;100592.88;5050656;28;20499;-74
2022/09/04 08:22:54;;;;;;;12.27;8.98;;;;;;;21.24;100.00;100582.94;5049097;28;20118;-69
2022/09/04 08:25:49;;;;;;;5.18;4.60;;;;;;;21.70;100.00;100638.66;5050131;28;20549;-69
2022/09/04 08:28:47;;;;;;;4.78;4.32;;;;;;;21.53;100.00;100657.84;5045971;28;20041;-71
2022/09/04 08:31:54;;;;;;;4.30;3.90;;;;;;;21.56;100.00;100643.88;5046430;28;20041;-71
2022/09/04 08:35:17;;;;;;;4.80;3.80;;;;;;;21.91;100.00;100631.31;5046826;28;20511;-71
2022/09/04 08:38:13;;;;;;;4.10;3.70;;;;;;;22.38;100.00;100637.66;5011846;28;20060;-75
2022/09/04 08:41:20;;;;;;;5.47;4.20;;;;;;;22.37;100.00;100640.34;5045771;28;20024;-70
2022/09/04 08:44:03;;;;;;;3.95;3.63;;;;;;;22.34;100.00;100650.94;5061449;28;20068;-72
2022/09/04 08:47:01;;;;;;;3.97;3.58;;;;;;;21.79;100.00;100632.09;5030041;28;20072;-69
2022/09/04 08:49:58;;;;;;;4.07;3.70;;;;;;;22.63;100.00;100656.78;5043043;28;20036;-70
2022/09/04 08:52:42;;;;;;;3.80;3.50;;;;;;;23.32;100.00;100652.00;5048738;28;20048;-69
2022/09/04 08:55:28;;;;;;;5.05;3.67;;;;;;;23.32;100.00;100644.22;5048655;28;20431;-69
2022/09/04 08:58:29;;;;;;;4.40;4.00;;;;;;;23.12;100.00;100650.78;5047477;28;20033;-70
2022/09/04 09:01:32;;;;;;;4.13;3.80;;;;;;;22.76;100.00;100653.28;5048201;28;20049;-70
2022/09/04 09:04:14;;;;;;;3.97;3.58;;;;;;;22.41;100.00;100577.84;5049726;28;20025;-69
2022/09/04 09:07:12;;;;;;;4.10;3.70;;;;;;;23.36;100.00;100648.25;5049505;28;20024;-67
2022/09/04 09:09:53;;;;;;;3.78;3.47;;;;;;;23.57;100.00;100661.50;5040401;28;20055;-68
2022/09/04 09:12:33;;;;;;;4.60;3.40;;;;;;;22.66;100.00;100660.00;5029381;28;20060;-70
2022/09/04 09:15:38;;;;;;;4.40;3.43;;;;;;;22.57;100.00;100651.97;5029015;28;20091;-68
2022/09/04 09:18:30;;;;;;;5.25;3.75;;;;;;;23.13;100.00;100657.63;5045071;28;20032;-68
2022/09/04 09:21:20;;;;;;;4.40;4.00;;;;;;;23.35;100.00;100646.63;5053439;28;20123;-68
2022/09/04 09:24:32;;;;;;;4.18;3.70;;;;;;;22.99;100.00;100643.94;5053164;28;20495;-67
2022/09/04 09:27:03;;;;;;;3.90;3.55;;;;;;;23.49;100.00;100643.88;5053895;28;20114;-69
2022/09/04 09:29:44;;;;;;;4.63;4.10;;;;;;;23.72;100.00;100650.88;5053922;28;20446;-67
2022/09/04 09:32:51;;;;;;;4.70;3.63;;;;;;;22.59;100.00;100585.34;5053194;28;20034;-68
2022/09/04 09:35:40;;;;;;;4.18;3.78;;;;;;;23.48;100.00;100651.75;5051502;28;20029;-68
2022/09/04 09:38:44;;;;;;;4.00;3.60;;;;;;;23.75;100.00;100645.44;5050569;28;20518;-71
2022/09/04 09:41:12;;;;;;;3.67;3.38;;;;;;;23.55;100.00;100656.41;5053302;28;20028;-68
2022/09/04 09:43:53;;;;;;;3.60;3.30;;;;;;;23.18;100.00;100652.09;5052938;28;20059;-69
2022/09/04 09:46:50;;;;;;;3.95;3.55;;;;;;;23.12;100.00;100652.53;5053361;28;20033;-68
2022/09/04 09:49:34;;;;;;;4.38;3.00;;;;;;;23.19;100.00;100666.75;5042595;28;20718;-69
2022/09/04 09:52:26;;;;;;;3.13;2.83;;;;;;;23.51;100.00;100669.75;5053996;28;20483;-68
2022/09/04 09:55:17;;;;;;;3.90;3.40;;;;;;;23.81;100.00;100667.56;5052671;28;20433;-72
2022/09/04 09:58:00;;;;;;;3.42;3.05;;;;;;;23.45;100.00;100665.81;5052817;28;20025;-70
2022/09/04 10:00:45;;;;;;;3.25;2.85;;;;;;;23.97;100.00;100655.94;5053188;28;20071;-70
2022/09/04 10:03:48;;;;;;;3.05;2.75;;;;;;;23.60;100.00;100661.28;5053510;28;20028;-70
2022/09/04 10:06:55;;;;;;;3.42;3.08;;;;;;;24.21;100.00;100675.91;5045259;28;20041;-70
2022/09/04 10:09:38;;;;;;;3.30;3.00;;;;;;;23.81;100.00;100634.59;5030738;28;20045;-70
2022/09/04 10:12:37;;;;;;;3.20;2.90;;;;;;;23.94;100.00;100666.56;5008719;28;20030;-71
2022/09/04 10:15:08;;;;;;;3.97;3.13;;;;;;;23.84;100.00;100686.34;5028450;28;20519;-69
2022/09/04 10:17:58;;;;;;;3.30;2.70;;;;;;;24.58;100.00;100678.28;5032996;28;20029;-69
2022/09/04 10:20:46;;;;;;;2.80;2.60;;;;;;;24.65;100.00;100670.84;5031490;28;20038;-71
2022/09/04 10:23:33;;;;;;;2.95;2.65;;;;;;;24.70;100.00;100673.97;5030773;28;20434;-70
2022/09/04 10:26:25;;;;;;;2.92;2.50;;;;;;;24.62;100.00;100676.31;5047949;28;20065;-69
2022/09/04 10:28:58;;;;;;;;;;;;;;;25.23;100.00;100680.28;5026590;28;20057;-67
2022/09/04 10:32:02;;;;;;;4.28;3.20;;;;;;;24.24;100.00;100679.13;5032605;28;19913;-70
2022/09/04 10:34:55;;;;;;;4.43;4.03;;;;;;;24.57;100.00;100670.59;5063996;28;20107;-69
2022/09/04 10:37:20;;;;;;;3.10;2.80;;;;;;;24.23;100.00;100661.03;5045634;28;20549;-69
2022/09/04 10:40:35;;;;;;;3.08;2.78;;;;;;;24.32;100.00;100650.81;5039833;28;20033;-71
2022/09/04 10:43:34;;;;;;;3.10;2.80;;;;;;;23.77;100.00;100651.34;5031812;28;20506;-68
2022/09/04 10:46:05;;;;;;;3.30;3.00;;;;;;;25.04;100.00;100587.16;5031633;28;20033;-67
2022/09/04 10:49:10;;;;;;;3.90;2.38;;;;;;;25.32;100.00;100560.63;5032409;28;20503;-67
2022/09/04 10:52:06;;;;;;;2.50;2.30;;;;;;;24.70;100.00;100559.50;5033202;28;20030;-67
2022/09/04 10:55:06;;;;;;;2.78;2.42;;;;;;;24.09;100.00;100644.69;5032056;28;20032;-68
2022/09/04 10:57:37;;;;;;;3.00;2.70;;;;;;;24.76;100.00;100643.13;5031760;28;20038;-68
2022/09/04 11:00:12;;;;;;;;;;;;;;;25.93;100.00;100632.09;5032426;28;20037;-69
2022/09/04 11:03:01;;;;;;;3.05;2.40;;;;;;;25.89;100.00;100632.50;5031707;28;19908;-69
2022/09/04 11:05:47;;;;;;;3.13;2.53;;;;;;;26.54;100.00;100636.53;5031334;28;20033;-70
2022/09/04 11:08:28;;;;;;;3.78;2.50;;;;;;;26.47;100.00;100632.81;5030850;28;20037;-69
2022/09/04 11:11:02;;;;;;;3.10;2.90;;;;;;;27.21;100.00;100628.25;5031887;28;20454;-68
2022/09/04 11:13:47;;;;;;;3.88;2.58;;;;;;;26.22;100.00;100625.38;5032170;28;20029;-70
2022/09/04 11:16:31;;;;;;;3.88;2.60;;;;;;;26.26;100.00;100620.72;5030812;28;20037;-68
2022/09/04 11:19:35;;;;;;;4.22;2.90;;;;;;;25.61;100.00;100606.03;5032831;28;20030;-69
2022/09/04 11:22:47;;;;;;;2.92;2.70;;;;;;;26.34;100.00;100563.53;5028788;28;20037;-70
2022/09/04 11:25:43;;;;;;;4.00;2.70;;;;;;;25.89;100.00;100611.63;5032423;28;20131;-69
2022/09/04 11:28:19;;;;;;;3.50;3.20;;;;;;;26.26;100.00;100592.03;5031230;28;20045;-68
2022/09/04 11:31:23;;;;;;;3.40;3.10;;;;;;;26.07;100.00;100595.31;5031868;28;20514;-67
2022/09/04 11:33:52;;;;;;;4.65;3.35;;;;;;;26.06;100.00;100598.91;5030622;28;20044;-68
2022/09/04 11:36:54;;;;;;;4.95;3.38;;;;;;;26.73;100.00;100594.09;5031993;28;20033;-67
2022/09/04 11:39:24;;;;;;;3.80;3.40;;;;;;;26.90;100.00;100593.47;5031775;28;20087;-68
2022/09/04 11:42:12;;;;;;;4.10;3.20;;;;;;;25.69;100.00;100590.59;5031603;28;20423;-68
2022/09/04 11:44:52;;;;;;;5.13;3.80;;;;;;;25.62;100.00;100584.25;5031694;28;20589;-68
2022/09/04 11:47:23;;;;;;;4.25;3.63;;;;;;;26.28;100.00;100585.75;5031824;28;20029;-69
2022/09/04 11:49:51;;;;;;;3.95;3.63;;;;;;;27.39;100.00;100585.66;5031973;28;20022;-68
2022/09/04 11:52:36;;;;;;;5.55;3.33;;;;;;;25.61;100.00;100597.41;5032024;28;20037;-68
2022/09/04 11:55:25;;;;;;;4.03;3.08;;;;;;;24.95;100.00;100535.84;5032075;28;20048;-67
2022/09/04 11:58:08;;;;;;;3.58;3.25;;;;;;;25.56;100.00;100584.75;5030144;28;20034;-68
2022/09/04 12:01:02;;;;;;;6.78;3.40;;;;;;;25.45;100.00;100582.16;5031450;28;20032;-69
2022/09/04 12:03:48;;;;;;;5.40;3.20;;;;;;;26.35;100.00;100586.03;5029484;28;20049;-69
2022/09/04 12:06:34;;;;;;;3.58;3.03;;;;;;;26.86;100.00;100568.59;5030984;28;20033;-69
2022/09/04 12:09:38;;;;;;;4.80;2.85;;;;;;;27.19;100.00;100570.91;5031005;28;20087;-69
2022/09/04 12:12:13;;;;;;;4.32;2.80;;;;;;;26.68;100.00;100569.34;5009531;28;20065;-70
2022/09/04 12:15:00;;;;;;;4.78;3.40;;;;;;;26.21;100.00;100563.72;5024033;28;20562;-67
2022/09/04 12:17:57;;;;;;;3.55;3.00;;;;;;;26.46;100.00;100563.31;5030820;28;20056;-70
2022/09/04 12:20:56;;;;;;;5.03;3.30;;;;;;;27.36;100.00;100553.78;5031715;28;20037;-69
2022/09/04 12:23:37;;;;;;;3.45;2.95;;;;;;;27.25;100.00;100566.94;5031442;28;20396;-71
2022/09/04 12:26:22;;;;;;;5.68;3.40;;;;;;;26.86;100.00;100505.94;5030243;28;20037;-70
2022/09/04 12:29:12;;;;;;;4.13;2.90;;;;;;;25.66;100.00;100538.75;5031765;28;20472;-69
2022/09/04 12:31:55;;;;;;;4.10;3.45;;;;;;;25.80;100.00;100540.22;5031438;28;20030;-69
2022/09/04 12:34:53;;;;;;;3.80;3.50;;;;;;;25.67;100.00;100550.81;5029803;28;20029;-69
2022/09/04 12:37:42;;;;;;;4.00;3.35;;;;;;;25.60;100.00;100541.84;5029819;28;20036;-70
2022/09/04 12:40:26;;;;;;;3.70;3.00;;;;;;;26.05;100.00;100555.50;5030910;28;20404;-70
2022/09/04 12:43:08;;;;;;;4.57;2.92;;;;;;;26.90;100.00;100517.78;5047236;28;20106;-69
2022/09/04 12:45:48;;;;;;;7.50;2.90;;;;;;;26.93;100.00;100542.81;5050137;28;20062;-70
2022/09/04 12:48:31;;;;;;;6.30;3.07;;;;;;;27.19;100.00;100538.75;5048844;28;20033;-67